Moreland, Georgia
Current Conditions -  °F | °C
As of 7:55 AM on Friday 31 Oct 2014 (Local Time) from KCCO Reporting Station
Scattered Clouds Scattered Clouds  
Wind Chill: 46°   Ceiling: Unl
Heat Index: 49°   Visibility: 10mi
Dew Point: 42°   Wind: 8mph
Humidity: 77%   Direction: 360°N
Pressure: 29.94"   Gusts: NA
Location:  33.29°N, 84.77°W
Report Text: KCCO 311155Z AUTO 36007KT 10SM SCT120 10/06 A2994 RMK AO2 T00960057 10100 20065
Loading
Personal Weather Stations






























Interactive Weather Map
Tropical Storm Tracking
New forecast layout! Learn more

10-Day Weather Forecast

Advertisements
Track Severe Weather on mobile